Time;durP1;ratioP1;P1;durP2;ratioP2;P2;SDS_P1;SDS_P2;PMS_P1;PMS_P2;Temp;Humidity;BMP_temperature;BMP_pressure;BME280_temperature;BME280_humidity;BME280_pressure;Samples;Min_cycle;Max_cycle;Signal;HPM_P1;HPM_P2
2023/09/27 00:01:52;;;;;;;17.02;8.23;;;18.70;99.90;;;;;;4250562;27;20043;-51
2023/09/27 00:03:56;;;;;;;12.57;7.22;;;18.80;99.90;;;;;;4250380;27;20047;-51
2023/09/27 00:05:58;;;;;;;9.65;6.47;;;18.80;99.90;;;;;;4250423;27;20047;-51
2023/09/27 00:08:00;;;;;;;16.00;7.32;;;18.80;99.80;;;;;;4251795;27;20148;-52
2023/09/27 00:10:03;;;;;;;11.68;6.55;;;18.80;99.90;;;;;;4250480;27;20043;-55
2023/09/27 00:12:06;;;;;;;12.48;6.82;;;18.80;99.90;;;;;;4251822;27;20514;-52
2023/09/27 00:14:08;;;;;;;14.20;7.50;;;18.80;99.80;;;;;;4250539;27;20045;-51
2023/09/27 00:16:11;;;;;;;11.45;6.68;;;18.90;99.70;;;;;;4232071;28;20051;-52
2023/09/27 00:18:14;;;;;;;10.27;5.75;;;18.90;99.70;;;;;;4249189;27;20055;-51
2023/09/27 00:20:19;;;;;;;14.20;7.43;;;18.90;99.60;;;;;;4249927;27;20043;-52
2023/09/27 00:22:22;;;;;;;9.63;6.65;;;18.90;99.70;;;;;;4249946;27;20096;-52
2023/09/27 00:24:24;;;;;;;11.65;6.43;;;18.90;99.70;;;;;;4249804;27;20545;-52
2023/09/27 00:26:26;;;;;;;12.00;6.60;;;18.90;99.70;;;;;;4249602;27;20050;-55
2023/09/27 00:28:28;;;;;;;11.70;6.32;;;18.90;99.70;;;;;;4249917;27;20051;-53
2023/09/27 00:30:31;;;;;;;9.68;6.20;;;18.90;99.80;;;;;;4249704;27;20433;-52
2023/09/27 00:32:33;;;;;;;11.57;6.32;;;18.90;99.90;;;;;;4231354;28;20130;-53
2023/09/27 00:34:36;;;;;;;12.85;5.90;;;18.80;99.90;;;;;;4249674;27;20062;-52
2023/09/27 00:36:39;;;;;;;10.63;6.28;;;18.80;99.90;;;;;;4249632;27;20046;-52
2023/09/27 00:38:41;;;;;;;10.40;6.18;;;18.80;99.90;;;;;;4250104;27;20053;-52
2023/09/27 00:40:45;;;;;;;10.95;5.95;;;18.80;99.90;;;;;;4249863;27;20092;-58
2023/09/27 00:42:47;;;;;;;10.55;6.28;;;18.80;99.90;;;;;;4250166;27;20088;-55
2023/09/27 00:44:50;;;;;;;10.18;5.78;;;18.80;99.90;;;;;;4249552;27;20047;-53
2023/09/27 00:46:52;;;;;;;12.10;5.75;;;18.80;99.90;;;;;;4249689;27;20039;-52
2023/09/27 00:48:55;;;;;;;10.88;5.80;;;18.80;99.90;;;;;;4249909;27;20076;-52
2023/09/27 00:50:58;;;;;;;11.82;5.68;;;18.80;99.90;;;;;;4249313;27;20135;-55
2023/09/27 00:53:01;;;;;;;10.70;6.07;;;18.80;99.90;;;;;;4249290;27;20115;-55
2023/09/27 00:55:04;;;;;;;10.70;6.85;;;18.80;99.90;;;;;;4249200;27;20096;-56
2023/09/27 00:57:09;;;;;;;12.48;7.28;;;18.70;99.90;;;;;;4231790;28;20109;-55
2023/09/27 00:59:12;;;;;;;13.38;7.50;;;18.80;99.90;;;;;;4249995;27;20076;-55
2023/09/27 01:01:14;;;;;;;11.43;7.00;;;18.70;99.90;;;;;;4249561;27;20046;-62
2023/09/27 01:03:17;;;;;;;12.70;7.70;;;18.70;99.90;;;;;;4249872;27;20047;-55
2023/09/27 01:05:20;;;;;;;16.38;8.38;;;18.70;99.90;;;;;;4249127;27;20043;-55
2023/09/27 01:07:23;;;;;;;16.15;7.85;;;18.70;99.90;;;;;;4249230;27;20043;-55
2023/09/27 01:09:26;;;;;;;12.13;7.50;;;18.60;99.90;;;;;;4249003;27;20066;-54
2023/09/27 01:11:29;;;;;;;15.00;8.15;;;18.60;99.90;;;;;;4249100;27;20043;-55
2023/09/27 01:13:32;;;;;;;13.82;7.43;;;18.60;99.90;;;;;;4248868;27;20057;-55
2023/09/27 01:15:34;;;;;;;15.07;6.95;;;18.50;99.90;;;;;;4248782;27;20082;-54
2023/09/27 01:17:51;;;;;;;12.43;7.53;;;18.50;99.90;;;;;;4231003;28;20067;-55
2023/09/27 01:19:53;;;;;;;14.90;7.35;;;18.50;99.90;;;;;;4232277;28;20048;-55
2023/09/27 01:21:55;;;;;;;17.20;7.80;;;18.50;99.90;;;;;;4232124;28;20489;-54
2023/09/27 01:23:59;;;;;;;13.05;8.15;;;18.50;99.90;;;;;;4231755;28;20075;-55
2023/09/27 01:26:01;;;;;;;15.07;8.30;;;18.50;99.90;;;;;;4231891;28;20047;-55
2023/09/27 01:28:05;;;;;;;13.35;8.15;;;18.50;99.90;;;;;;4231853;28;20047;-55
2023/09/27 01:30:09;;;;;;;13.00;8.30;;;18.50;99.90;;;;;;4231854;28;20455;-55
2023/09/27 01:32:11;;;;;;;15.80;8.77;;;18.50;99.90;;;;;;4231983;28;20071;-54
2023/09/27 01:34:13;;;;;;;13.95;7.78;;;18.40;99.90;;;;;;4213712;28;20047;-55
2023/09/27 01:36:16;;;;;;;15.02;8.40;;;18.40;99.90;;;;;;4231547;28;20051;-54
2023/09/27 01:38:18;;;;;;;15.25;9.32;;;18.40;99.90;;;;;;4231372;28;20067;-54
2023/09/27 01:40:26;;;;;;;15.45;9.70;;;18.40;99.90;;;;;;4231534;28;20047;-54
2023/09/27 01:42:28;;;;;;;18.15;9.43;;;18.40;99.90;;;;;;4231930;28;20069;-54
2023/09/27 01:44:30;;;;;;;18.15;10.05;;;18.40;99.90;;;;;;4231734;28;20063;-55
2023/09/27 01:46:32;;;;;;;21.42;13.98;;;18.40;99.90;;;;;;4231469;28;20055;-55
2023/09/27 01:48:36;;;;;;;28.50;17.70;;;18.40;99.90;;;;;;4231374;28;20044;-54
2023/09/27 01:50:38;;;;;;;29.48;15.57;;;18.40;99.90;;;;;;4231387;28;20075;-54
2023/09/27 01:52:40;;;;;;;22.73;15.10;;;18.40;99.90;;;;;;4231261;28;20079;-53
2023/09/27 01:54:42;;;;;;;24.67;16.45;;;18.40;99.90;;;;;;4232316;28;20079;-60
2023/09/27 01:56:46;;;;;;;24.30;14.70;;;18.40;99.90;;;;;;4232363;28;20047;-56
2023/09/27 01:58:48;;;;;;;20.95;14.77;;;18.40;99.90;;;;;;4231734;28;20043;-55
2023/09/27 02:00:50;;;;;;;23.25;14.40;;;18.40;99.90;;;;;;4213415;28;20040;-54
2023/09/27 02:03:00;;;;;;;23.70;15.43;;;18.30;99.90;;;;;;4231345;28;20052;-55
2023/09/27 02:05:03;;;;;;;23.42;14.98;;;18.30;99.90;;;;;;4231208;28;20056;-54
2023/09/27 02:07:06;;;;;;;21.77;15.02;;;18.30;99.90;;;;;;4213076;28;20050;-55
2023/09/27 02:09:08;;;;;;;26.35;15.13;;;18.20;99.90;;;;;;4231196;28;20074;-54
2023/09/27 02:11:13;;;;;;;27.60;15.70;;;18.20;99.90;;;;;;4231304;28;20054;-55
2023/09/27 02:13:16;;;;;;;26.73;14.77;;;18.20;99.90;;;;;;4230939;28;20054;-55
2023/09/27 02:15:18;;;;;;;23.92;14.25;;;18.20;99.90;;;;;;4231108;28;20039;-54
2023/09/27 02:17:21;;;;;;;20.83;12.88;;;18.20;99.90;;;;;;4240454;27;20134;-54
2023/09/27 02:19:24;;;;;;;24.02;13.55;;;18.20;99.90;;;;;;4247796;27;20044;-55
2023/09/27 02:21:26;;;;;;;26.38;15.40;;;18.20;99.90;;;;;;4248048;27;20136;-55
2023/09/27 02:23:29;;;;;;;22.45;14.20;;;18.10;99.90;;;;;;4248045;27;20049;-55
2023/09/27 02:25:31;;;;;;;22.75;13.07;;;18.00;99.90;;;;;;4247931;27;20105;-54
2023/09/27 02:27:33;;;;;;;21.50;14.48;;;18.00;99.90;;;;;;4248253;27;20047;-54
2023/09/27 02:29:37;;;;;;;19.88;12.93;;;18.00;99.90;;;;;;4248157;27;20049;-54
2023/09/27 02:31:39;;;;;;;17.63;12.00;;;18.00;99.90;;;;;;4247958;27;20120;-54
2023/09/27 02:33:41;;;;;;;19.25;12.23;;;18.00;99.90;;;;;;4247876;27;20398;-54
2023/09/27 02:35:44;;;;;;;19.67;12.68;;;18.00;99.90;;;;;;4247512;27;20151;-54
2023/09/27 02:37:46;;;;;;;17.50;12.43;;;18.00;99.90;;;;;;4247978;27;20050;-55
2023/09/27 02:39:48;;;;;;;23.10;13.18;;;18.00;99.90;;;;;;4247887;27;20047;-55
2023/09/27 02:41:50;;;;;;;17.35;12.82;;;18.00;99.90;;;;;;4247163;27;20077;-55
2023/09/27 02:43:52;;;;;;;24.73;12.95;;;17.90;99.90;;;;;;4247785;27;20047;-55
2023/09/27 02:45:56;;;;;;;19.02;12.02;;;17.90;99.90;;;;;;4248021;27;20057;-55
2023/09/27 02:47:58;;;;;;;19.63;11.43;;;17.90;99.90;;;;;;4247919;27;20138;-55
2023/09/27 02:50:02;;;;;;;19.98;11.80;;;17.90;99.90;;;;;;4247354;27;20450;-54
2023/09/27 02:52:06;;;;;;;19.05;11.80;;;17.90;99.90;;;;;;4247981;27;20043;-55
2023/09/27 02:54:10;;;;;;;25.13;12.18;;;17.90;99.90;;;;;;4247816;27;20137;-55
2023/09/27 02:56:13;;;;;;;22.23;12.93;;;17.90;99.90;;;;;;4248025;27;20055;-57
2023/09/27 02:58:15;;;;;;;20.25;11.20;;;17.90;99.90;;;;;;4248002;27;20144;-54
2023/09/27 03:00:19;;;;;;;24.58;10.85;;;17.90;99.90;;;;;;4248305;27;20126;-56
2023/09/27 03:02:23;;;;;;;21.45;11.40;;;17.90;99.90;;;;;;4247672;27;20046;-54
2023/09/27 03:04:25;;;;;;;24.10;11.50;;;17.90;99.90;;;;;;4247654;27;20496;-55
2023/09/27 03:06:29;;;;;;;22.20;9.98;;;17.90;99.90;;;;;;4247679;28;20480;-55
2023/09/27 03:08:31;;;;;;;20.35;10.18;;;17.90;99.90;;;;;;4247519;28;20047;-55
2023/09/27 03:10:37;;;;;;;15.05;8.85;;;18.00;99.90;;;;;;4247506;28;20074;-54
2023/09/27 03:12:39;;;;;;;15.13;9.43;;;18.00;99.90;;;;;;4229404;28;20055;-55
2023/09/27 03:14:42;;;;;;;18.90;9.43;;;18.00;99.90;;;;;;4247361;28;20051;-55
2023/09/27 03:16:44;;;;;;;15.13;9.55;;;17.90;99.90;;;;;;4247443;28;20071;-54
2023/09/27 03:18:47;;;;;;;16.98;9.50;;;18.00;99.90;;;;;;4247277;28;20412;-54
2023/09/27 03:20:51;;;;;;;17.52;9.98;;;17.90;99.90;;;;;;4247223;28;20531;-55
2023/09/27 03:22:53;;;;;;;15.85;8.93;;;18.00;99.90;;;;;;4247455;28;20071;-55
2023/09/27 03:24:55;;;;;;;16.63;8.70;;;17.90;99.90;;;;;;4247141;28;20043;-54
2023/09/27 03:26:57;;;;;;;20.85;9.88;;;17.90;99.90;;;;;;4247256;28;20050;-55
2023/09/27 03:28:59;;;;;;;20.38;8.48;;;17.90;99.90;;;;;;4247506;28;20420;-54
2023/09/27 03:31:03;;;;;;;17.80;8.82;;;17.80;99.90;;;;;;4247373;28;20088;-54
2023/09/27 03:33:05;;;;;;;19.27;8.95;;;17.80;99.90;;;;;;4246956;28;20039;-55
2023/09/27 03:35:09;;;;;;;17.80;8.80;;;17.80;99.90;;;;;;4247178;28;20050;-54
2023/09/27 03:37:12;;;;;;;16.80;8.90;;;17.80;99.90;;;;;;4248006;28;20061;-55
2023/09/27 03:39:14;;;;;;;22.00;9.68;;;17.70;99.90;;;;;;4248863;28;20062;-56
2023/09/27 03:41:16;;;;;;;15.55;8.25;;;17.70;99.90;;;;;;4248014;28;20115;-54
2023/09/27 03:43:18;;;;;;;16.80;8.73;;;17.60;99.90;;;;;;4247573;28;20481;-55
2023/09/27 03:45:20;;;;;;;15.30;7.90;;;17.70;99.90;;;;;;4247600;28;20046;-55
2023/09/27 03:47:23;;;;;;;23.02;9.07;;;17.60;99.90;;;;;;4247659;28;20509;-55
2023/09/27 03:49:25;;;;;;;20.90;8.52;;;17.60;99.90;;;;;;4247051;28;20075;-55
2023/09/27 03:51:29;;;;;;;13.95;7.65;;;17.60;99.90;;;;;;4247082;28;20043;-55
2023/09/27 03:53:31;;;;;;;16.90;8.02;;;17.60;99.90;;;;;;4248904;27;20118;-55
2023/09/27 03:55:34;;;;;;;17.35;8.45;;;17.50;99.90;;;;;;4250390;27;20055;-54
2023/09/27 03:57:37;;;;;;;15.10;7.82;;;17.60;99.90;;;;;;4232327;28;20054;-55
2023/09/27 03:59:39;;;;;;;16.13;8.38;;;17.50;99.90;;;;;;4250169;27;20048;-56
2023/09/27 04:01:42;;;;;;;20.17;8.32;;;17.50;99.90;;;;;;4232296;28;20048;-55
2023/09/27 04:03:44;;;;;;;19.38;8.63;;;17.50;99.90;;;;;;4231839;28;20105;-54
2023/09/27 04:05:46;;;;;;;15.27;8.35;;;17.50;99.90;;;;;;4250250;27;20050;-55
2023/09/27 04:07:49;;;;;;;14.23;6.63;;;17.50;99.90;;;;;;4250196;27;20103;-55
2023/09/27 04:09:52;;;;;;;13.80;7.75;;;17.50;99.90;;;;;;4249984;27;20039;-54
2023/09/27 04:11:55;;;;;;;16.17;7.65;;;17.50;99.90;;;;;;4250054;27;20131;-54
2023/09/27 04:13:57;;;;;;;16.10;7.35;;;17.50;99.90;;;;;;4250153;27;20096;-54
2023/09/27 04:16:00;;;;;;;11.55;6.80;;;17.40;99.90;;;;;;4249988;27;20055;-54
2023/09/27 04:18:03;;;;;;;15.30;7.38;;;17.40;99.90;;;;;;4249471;27;20070;-54
2023/09/27 04:20:16;;;;;;;13.43;7.13;;;17.40;99.90;;;;;;4249966;27;20467;-55
2023/09/27 04:22:18;;;;;;;12.73;7.10;;;17.50;99.90;;;;;;4249850;27;20046;-54
2023/09/27 04:24:23;;;;;;;12.38;7.10;;;17.50;99.90;;;;;;4249963;27;20072;-55
2023/09/27 04:26:25;;;;;;;19.13;7.80;;;17.50;99.90;;;;;;4249964;27;20051;-54
2023/09/27 04:28:27;;;;;;;20.35;7.55;;;17.50;99.90;;;;;;4250046;27;20477;-55
2023/09/27 04:30:29;;;;;;;11.73;6.63;;;17.40;99.90;;;;;;4249906;27;20442;-54
2023/09/27 04:32:31;;;;;;;19.65;7.30;;;17.40;99.90;;;;;;4249636;27;20071;-55
2023/09/27 04:34:33;;;;;;;13.30;6.43;;;17.40;99.90;;;;;;4249532;27;20182;-54
2023/09/27 04:36:35;;;;;;;13.52;6.68;;;17.40;99.90;;;;;;4250097;27;20138;-54
2023/09/27 04:38:37;;;;;;;10.57;5.97;;;17.40;99.90;;;;;;4250052;27;20073;-53
2023/09/27 04:40:41;;;;;;;14.00;7.05;;;17.30;99.90;;;;;;4249995;27;20115;-54
2023/09/27 04:42:45;;;;;;;13.13;6.72;;;17.30;99.90;;;;;;4249633;27;20047;-55
2023/09/27 04:44:47;;;;;;;13.77;6.93;;;17.30;99.90;;;;;;4249453;27;20047;-54
2023/09/27 04:46:49;;;;;;;13.30;6.50;;;17.30;99.90;;;;;;4249393;27;20382;-54
2023/09/27 04:48:51;;;;;;;15.48;6.93;;;17.30;99.90;;;;;;4249735;27;20138;-54
2023/09/27 04:50:53;;;;;;;12.20;7.32;;;17.30;99.90;;;;;;4249340;27;20476;-54
2023/09/27 04:52:55;;;;;;;9.50;6.45;;;17.30;99.90;;;;;;4249661;27;20094;-59
2023/09/27 04:54:57;;;;;;;12.30;6.95;;;17.30;99.90;;;;;;4249146;27;20114;-54
2023/09/27 04:57:01;;;;;;;15.35;7.50;;;17.30;99.90;;;;;;4249571;27;20043;-52
2023/09/27 04:59:04;;;;;;;14.73;7.03;;;17.20;99.90;;;;;;4249816;27;20043;-52
2023/09/27 05:01:06;;;;;;;15.30;6.90;;;17.20;99.90;;;;;;4230744;28;20040;-52
2023/09/27 05:03:09;;;;;;;11.20;6.55;;;17.10;99.90;;;;;;4249594;27;20082;-52
2023/09/27 05:05:11;;;;;;;12.80;6.68;;;17.10;99.90;;;;;;4249241;27;20082;-52
2023/09/27 05:07:14;;;;;;;14.68;6.80;;;17.20;99.90;;;;;;4249344;27;20046;-52
2023/09/27 05:09:18;;;;;;;8.77;5.85;;;17.10;99.90;;;;;;4249202;27;20040;-52
2023/09/27 05:11:22;;;;;;;16.30;6.60;;;17.10;99.90;;;;;;4249532;27;20435;-52
2023/09/27 05:13:25;;;;;;;12.90;6.53;;;17.20;99.90;;;;;;4249107;27;20443;-52
2023/09/27 05:15:27;;;;;;;15.20;6.78;;;17.20;99.90;;;;;;4249003;27;20118;-52
2023/09/27 05:17:30;;;;;;;15.65;7.18;;;17.10;99.90;;;;;;4231047;28;20557;-53
2023/09/27 05:19:32;;;;;;;14.65;6.72;;;17.10;99.90;;;;;;4232483;28;20401;-53
2023/09/27 05:21:34;;;;;;;11.88;6.57;;;17.00;99.90;;;;;;4233976;28;20054;-55
2023/09/27 05:23:42;;;;;;;11.35;7.07;;;17.00;99.90;;;;;;4232912;28;20043;-52
2023/09/27 05:25:49;;;;;;;14.15;7.40;;;17.00;99.90;;;;;;4232800;28;20075;-54
2023/09/27 05:27:51;;;;;;;14.48;6.95;;;17.00;99.90;;;;;;4234262;28;20075;-55
2023/09/27 05:29:55;;;;;;;12.57;6.68;;;16.90;99.90;;;;;;4233530;28;20127;-58
2023/09/27 05:31:57;;;;;;;13.32;6.43;;;17.00;99.90;;;;;;4232427;28;20067;-53
2023/09/27 05:33:59;;;;;;;14.88;7.00;;;17.00;99.90;;;;;;4232084;28;20048;-54
2023/09/27 05:36:02;;;;;;;13.35;6.63;;;17.00;99.90;;;;;;4231891;28;20146;-55
2023/09/27 05:38:05;;;;;;;12.18;7.15;;;17.00;99.90;;;;;;4232039;28;20051;-54
2023/09/27 05:40:09;;;;;;;14.23;6.93;;;17.00;99.90;;;;;;4231983;28;20055;-53
2023/09/27 05:42:11;;;;;;;11.48;6.25;;;17.00;99.90;;;;;;4231804;28;20044;-52
2023/09/27 05:44:13;;;;;;;13.48;6.40;;;17.00;99.90;;;;;;4231219;28;20078;-54
2023/09/27 05:46:18;;;;;;;10.35;6.63;;;17.00;99.90;;;;;;4213840;28;20078;-53
2023/09/27 05:48:20;;;;;;;12.93;6.05;;;17.00;99.90;;;;;;4231064;28;20119;-58
2023/09/27 05:50:22;;;;;;;12.20;6.32;;;17.00;99.90;;;;;;4231653;28;20093;-53
2023/09/27 05:52:27;;;;;;;14.35;7.22;;;17.00;99.90;;;;;;4232061;28;20051;-64
2023/09/27 05:54:29;;;;;;;17.42;6.53;;;17.00;99.90;;;;;;4232722;28;20047;-54
2023/09/27 05:56:33;;;;;;;16.45;6.65;;;17.00;99.90;;;;;;4233845;28;20056;-56
2023/09/27 05:58:37;;;;;;;10.13;6.30;;;16.90;99.90;;;;;;4233097;28;20240;-55
2023/09/27 06:00:42;;;;;;;9.60;5.70;;;16.90;99.90;;;;;;4232333;28;20078;-54
2023/09/27 06:02:47;;;;;;;13.40;6.63;;;16.90;99.90;;;;;;4231786;28;20047;-53
2023/09/27 06:04:49;;;;;;;11.23;6.38;;;17.00;99.90;;;;;;4231652;28;20049;-54
2023/09/27 06:06:52;;;;;;;11.77;6.65;;;16.90;99.90;;;;;;4231719;28;20039;-55
2023/09/27 06:08:54;;;;;;;14.82;6.53;;;17.00;99.90;;;;;;4231919;28;20052;-54
2023/09/27 06:10:57;;;;;;;15.68;6.13;;;17.00;99.90;;;;;;4231804;28;20130;-54
2023/09/27 06:12:59;;;;;;;13.27;6.07;;;17.10;99.90;;;;;;4231523;28;20043;-54
2023/09/27 06:15:01;;;;;;;16.27;6.10;;;17.10;99.90;;;;;;4231385;28;20146;-58
2023/09/27 06:17:03;;;;;;;12.80;6.40;;;17.10;99.90;;;;;;4237093;27;20050;-54
2023/09/27 06:19:09;;;;;;;18.08;6.97;;;17.20;99.90;;;;;;4248663;27;20182;-54
2023/09/27 06:21:12;;;;;;;11.50;6.53;;;17.20;99.90;;;;;;4248394;27;20047;-54
2023/09/27 06:23:14;;;;;;;10.32;5.85;;;17.30;99.90;;;;;;4248059;27;20412;-54
2023/09/27 06:25:17;;;;;;;10.88;5.80;;;17.30;99.90;;;;;;4248172;27;20107;-54
2023/09/27 06:27:20;;;;;;;12.68;5.72;;;17.30;99.90;;;;;;4249315;27;20118;-55
2023/09/27 06:29:22;;;;;;;11.15;6.47;;;17.30;99.90;;;;;;4250588;27;20067;-54
2023/09/27 06:31:25;;;;;;;17.27;6.55;;;17.30;99.90;;;;;;4232157;28;20051;-52
2023/09/27 06:33:29;;;;;;;11.20;6.10;;;17.40;99.90;;;;;;4250357;27;20096;-52
2023/09/27 06:35:33;;;;;;;11.07;6.72;;;17.40;99.90;;;;;;4250330;27;20404;-56
2023/09/27 06:37:36;;;;;;;15.20;6.32;;;17.50;99.90;;;;;;4250091;27;20054;-55
2023/09/27 06:39:38;;;;;;;13.25;6.47;;;17.50;99.90;;;;;;4250689;27;20043;-57
2023/09/27 06:41:41;;;;;;;13.13;7.03;;;17.60;99.90;;;;;;4250281;27;20047;-58
2023/09/27 06:43:43;;;;;;;12.23;5.68;;;17.60;99.90;;;;;;4250328;27;20066;-55
2023/09/27 06:45:45;;;;;;;19.80;6.57;;;17.60;99.90;;;;;;4250047;27;20077;-60
2023/09/27 06:47:47;;;;;;;22.25;7.95;;;17.70;99.90;;;;;;4249618;27;20050;-58
2023/09/27 06:49:49;;;;;;;33.80;8.30;;;17.70;99.90;;;;;;4250178;27;20055;-60
2023/09/27 06:51:53;;;;;;;21.67;7.35;;;17.80;99.90;;;;;;4249998;27;20070;-52
2023/09/27 06:53:56;;;;;;;25.70;8.05;;;17.80;99.90;;;;;;4248928;27;20054;-54
2023/09/27 06:55:58;;;;;;;26.27;8.25;;;17.80;99.90;;;;;;4249415;27;20133;-54
2023/09/27 06:58:00;;;;;;;23.55;8.38;;;17.90;99.90;;;;;;4249534;27;20053;-51
2023/09/27 07:00:08;;;;;;;22.27;8.30;;;17.90;99.90;;;;;;4249365;27;20050;-53
2023/09/27 07:02:10;;;;;;;20.67;7.13;;;17.90;99.90;;;;;;4249857;27;20050;-60
2023/09/27 07:04:12;;;;;;;16.70;7.50;;;17.90;99.90;;;;;;4231722;28;20438;-55
2023/09/27 07:06:15;;;;;;;29.77;8.50;;;18.00;99.90;;;;;;4249772;27;20460;-59
2023/09/27 07:08:18;;;;;;;22.67;8.63;;;18.00;99.90;;;;;;4249042;28;20126;-54
2023/09/27 07:10:22;;;;;;;34.95;9.45;;;18.10;99.90;;;;;;4249006;28;20043;-52
2023/09/27 07:12:25;;;;;;;34.07;10.37;;;18.10;99.90;;;;;;4248696;28;20089;-53
2023/09/27 07:14:28;;;;;;;28.90;9.13;;;18.20;99.90;;;;;;4248780;28;20447;-54
2023/09/27 07:16:30;;;;;;;29.13;9.35;;;18.20;99.90;;;;;;4248823;28;20548;-52
2023/09/27 07:18:35;;;;;;;49.30;10.25;;;18.20;99.90;;;;;;4248028;28;20043;-52
2023/09/27 07:20:40;;;;;;;31.58;9.48;;;18.30;99.90;;;;;;4247788;28;20040;-53
2023/09/27 07:22:42;;;;;;;47.70;10.90;;;18.40;99.90;;;;;;4248770;28;20532;-55
2023/09/27 07:24:46;;;;;;;46.92;11.57;;;18.50;99.90;;;;;;4248826;28;20043;-64
2023/09/27 07:26:52;;;;;;;41.70;10.57;;;18.60;99.90;;;;;;4230307;28;20177;-52
2023/09/27 07:28:54;;;;;;;35.15;9.38;;;18.70;99.90;;;;;;4251917;27;20039;-53
2023/09/27 07:30:58;;;;;;;38.97;10.27;;;18.80;99.90;;;;;;4252495;27;20050;-53
2023/09/27 07:33:06;;;;;;;31.65;9.40;;;18.80;99.90;;;;;;4233214;28;20051;-52
2023/09/27 07:35:10;;;;;;;32.38;10.25;;;18.90;99.90;;;;;;4250873;27;20114;-52
2023/09/27 07:37:12;;;;;;;38.78;10.88;;;19.00;99.90;;;;;;4251171;27;20134;-52
2023/09/27 07:39:16;;;;;;;29.30;9.70;;;19.10;99.90;;;;;;4251096;27;20043;-54
2023/09/27 07:41:20;;;;;;;35.20;10.27;;;19.10;99.90;;;;;;4250800;27;20043;-56
2023/09/27 07:43:22;;;;;;;31.52;9.85;;;19.20;99.90;;;;;;4251141;27;20122;-52
2023/09/27 07:45:30;;;;;;;46.85;10.68;;;19.10;99.90;;;;;;4251117;27;20046;-53
2023/09/27 07:47:33;;;;;;;30.90;9.82;;;19.20;99.90;;;;;;4250986;27;20047;-53
2023/09/27 07:49:35;;;;;;;31.83;9.43;;;19.10;99.90;;;;;;4250466;27;20130;-52
2023/09/27 07:51:38;;;;;;;31.27;9.38;;;19.20;99.90;;;;;;4250782;27;20051;-53
2023/09/27 07:53:40;;;;;;;31.35;10.68;;;19.20;99.90;;;;;;4250545;27;20543;-52
2023/09/27 07:55:43;;;;;;;44.63;10.85;;;19.30;99.90;;;;;;4250149;27;20046;-52
2023/09/27 07:57:47;;;;;;;29.48;9.95;;;19.30;99.90;;;;;;4250503;27;20658;-52
2023/09/27 07:59:49;;;;;;;30.88;9.48;;;19.40;99.90;;;;;;4250403;27;20559;-52
2023/09/27 08:01:54;;;;;;;32.55;9.60;;;19.40;99.90;;;;;;4250175;27;20047;-54
2023/09/27 08:04:05;;;;;;;36.25;11.02;;;19.50;99.90;;;;;;4231839;28;20094;-52
2023/09/27 08:06:13;;;;;;;59.78;14.02;;;19.50;99.90;;;;;;4250038;27;20088;-52
2023/09/27 08:08:15;;;;;;;53.13;12.27;;;19.50;99.90;;;;;;4248192;27;20076;-52
2023/09/27 08:10:19;;;;;;;37.00;10.65;;;19.60;99.90;;;;;;4249820;27;20043;-52
2023/09/27 08:12:24;;;;;;;26.60;9.60;;;19.60;99.90;;;;;;4247837;27;20095;-53
2023/09/27 08:14:28;;;;;;;33.72;10.60;;;19.70;99.90;;;;;;4235420;27;20044;-54
2023/09/27 08:16:30;;;;;;;40.78;11.35;;;19.80;99.90;;;;;;4238281;27;20047;-56
2023/09/27 08:18:33;;;;;;;18.48;8.63;;;19.90;99.90;;;;;;4232778;28;20048;-57
2023/09/27 08:20:38;;;;;;;16.25;8.25;;;20.00;99.90;;;;;;4239335;27;20042;-54
2023/09/27 08:22:40;;;;;;;23.55;9.30;;;20.00;99.50;;;;;;4250001;27;20092;-54
2023/09/27 08:24:42;;;;;;;19.63;8.98;;;20.20;99.70;;;;;;4249570;27;20398;-54
2023/09/27 08:26:44;;;;;;;25.23;9.95;;;20.30;99.60;;;;;;4249890;27;20374;-53
2023/09/27 08:28:48;;;;;;;23.20;10.07;;;20.40;99.50;;;;;;4249808;27;20045;-55
2023/09/27 08:30:56;;;;;;;22.42;9.23;;;20.50;99.60;;;;;;4243937;27;20126;-54
2023/09/27 08:32:58;;;;;;;22.02;8.80;;;20.50;99.30;;;;;;4244767;27;20059;-55
2023/09/27 08:35:02;;;;;;;16.48;7.95;;;20.50;99.10;;;;;;4247638;27;20051;-55
2023/09/27 08:37:04;;;;;;;14.90;8.75;;;20.50;99.00;;;;;;4245523;27;20434;-56
2023/09/27 08:39:09;;;;;;;21.65;8.38;;;20.50;99.00;;;;;;4248077;27;20065;-56
2023/09/27 08:41:13;;;;;;;25.52;10.32;;;20.60;98.90;;;;;;4242170;27;20469;-54
2023/09/27 08:43:16;;;;;;;25.58;9.48;;;20.60;98.90;;;;;;4237853;27;20074;-55
2023/09/27 08:45:22;;;;;;;18.00;9.07;;;20.70;98.80;;;;;;4237324;27;20043;-54
2023/09/27 08:47:25;;;;;;;15.77;8.63;;;20.70;98.90;;;;;;4230071;28;20485;-52
2023/09/27 08:49:28;;;;;;;19.95;8.30;;;20.80;98.90;;;;;;4241280;27;20050;-55
2023/09/27 08:51:31;;;;;;;22.48;8.80;;;20.80;98.80;;;;;;4248766;27;20039;-54
2023/09/27 08:53:34;;;;;;;21.48;8.55;;;20.90;98.30;;;;;;4248336;27;20074;-54
2023/09/27 08:55:38;;;;;;;16.70;6.85;;;20.80;98.00;;;;;;4248683;27;20561;-56
2023/09/27 08:57:45;;;;;;;14.82;6.18;;;20.80;98.00;;;;;;4248455;27;20078;-56
2023/09/27 08:59:47;;;;;;;14.07;6.20;;;20.90;97.80;;;;;;4248400;27;20082;-54
2023/09/27 09:01:52;;;;;;;10.35;5.95;;;21.00;97.60;;;;;;4248491;27;20808;-51
2023/09/27 09:03:56;;;;;;;14.68;6.97;;;21.10;97.70;;;;;;4248075;27;20093;-51
2023/09/27 09:05:59;;;;;;;21.05;5.80;;;21.10;97.50;;;;;;4247758;27;20775;-52
2023/09/27 09:08:06;;;;;;;10.80;5.95;;;21.10;97.60;;;;;;4249490;27;20043;-53
2023/09/27 09:10:13;;;;;;;16.20;6.40;;;21.10;97.40;;;;;;4247562;27;20043;-52
2023/09/27 09:12:17;;;;;;;14.88;4.90;;;21.10;97.20;;;;;;4247316;27;20137;-53
2023/09/27 09:14:22;;;;;;;14.73;5.43;;;21.20;97.40;;;;;;4244397;27;20044;-53
2023/09/27 09:16:24;;;;;;;10.07;5.35;;;21.20;97.10;;;;;;4241745;27;20043;-53
2023/09/27 09:18:28;;;;;;;17.25;5.50;;;21.30;97.30;;;;;;4231458;28;20097;-53
2023/09/27 09:20:33;;;;;;;17.42;5.85;;;21.30;97.10;;;;;;4239165;27;20043;-54
2023/09/27 09:22:42;;;;;;;14.18;5.85;;;21.40;97.10;;;;;;4242877;27;20100;-53
2023/09/27 09:24:45;;;;;;;13.32;5.05;;;21.40;96.70;;;;;;4248645;27;20047;-53
2023/09/27 09:26:47;;;;;;;11.68;5.22;;;21.40;96.80;;;;;;4248323;27;20441;-52
2023/09/27 09:28:56;;;;;;;9.82;5.47;;;21.50;96.90;;;;;;4247834;27;20122;-53
2023/09/27 09:30:59;;;;;;;8.63;5.38;;;21.50;96.70;;;;;;4248145;27;20103;-53
2023/09/27 09:33:03;;;;;;;10.68;5.05;;;21.50;96.60;;;;;;4244908;27;20946;-50
2023/09/27 09:35:08;;;;;;;11.50;5.72;;;21.50;96.70;;;;;;4236586;27;20093;-52
2023/09/27 09:37:19;;;;;;;13.00;5.43;;;21.60;96.70;;;;;;4237003;27;20038;-53
2023/09/27 09:39:21;;;;;;;13.88;5.47;;;21.70;96.10;;;;;;4247210;27;20118;-52
2023/09/27 09:41:42;;;;;;;14.85;5.38;;;21.70;96.50;;;;;;4240299;27;20047;-52
2023/09/27 09:43:44;;;;;;;9.82;4.65;;;21.80;96.60;;;;;;4243120;27;20043;-54
2023/09/27 09:45:47;;;;;;;9.15;4.35;;;21.80;96.50;;;;;;4247380;27;20084;-54
2023/09/27 09:47:50;;;;;;;11.88;5.22;;;21.80;96.50;;;;;;4244110;27;20050;-53
2023/09/27 09:49:53;;;;;;;15.65;5.60;;;21.80;96.20;;;;;;4237296;27;20430;-52
2023/09/27 09:51:57;;;;;;;16.63;5.60;;;21.90;96.20;;;;;;4230285;28;20047;-53
2023/09/27 09:54:06;;;;;;;9.15;5.25;;;21.90;96.10;;;;;;4239720;27;20054;-54
2023/09/27 09:56:09;;;;;;;9.38;4.80;;;21.90;96.20;;;;;;4230752;28;20043;-57
2023/09/27 09:58:23;;;;;;;15.07;5.72;;;21.90;96.10;;;;;;4230523;28;20439;-54
2023/09/27 10:00:26;;;;;;;16.42;6.05;;;22.00;96.00;;;;;;4230518;28;20489;-55
2023/09/27 10:02:35;;;;;;;23.63;5.97;;;22.00;95.80;;;;;;4230543;28;20051;-53
2023/09/27 10:04:39;;;;;;;13.68;5.53;;;22.10;95.90;;;;;;4232843;27;20054;-54
2023/09/27 10:06:43;;;;;;;7.88;4.97;;;22.10;95.60;;;;;;4243660;27;20120;-53
2023/09/27 10:08:52;;;;;;;10.98;5.70;;;22.10;95.50;;;;;;4247602;27;20050;-54
2023/09/27 10:10:55;;;;;;;11.60;4.90;;;22.20;95.60;;;;;;4246532;27;20047;-52
2023/09/27 10:12:58;;;;;;;13.60;5.70;;;22.30;95.40;;;;;;4247472;27;20154;-55
2023/09/27 10:15:01;;;;;;;11.32;4.97;;;22.30;95.20;;;;;;4247000;27;20544;-54
2023/09/27 10:17:03;;;;;;;14.80;5.47;;;22.40;95.10;;;;;;4245762;27;20118;-55
2023/09/27 10:19:06;;;;;;;10.20;5.30;;;22.40;95.00;;;;;;4245031;27;20534;-53
2023/09/27 10:21:13;;;;;;;11.77;4.65;;;22.40;95.00;;;;;;4240126;27;20116;-54
2023/09/27 10:23:20;;;;;;;10.02;4.40;;;22.40;94.90;;;;;;4230249;28;20083;-53
2023/09/27 10:25:35;;;;;;;13.80;4.53;;;22.40;94.80;;;;;;4230273;28;20043;-54
2023/09/27 10:27:56;;;;;;;;;;;22.40;94.70;;;;;;4231200;28;20070;-54
2023/09/27 10:30:00;;;;;;;11.75;4.30;;;22.40;94.70;;;;;;4231103;28;19920;-53
2023/09/27 10:32:20;;;;;;;;;;;22.40;94.80;;;;;;4238628;27;20697;-54
2023/09/27 10:34:39;;;;;;;10.27;4.50;;;22.40;94.90;;;;;;4241453;27;19989;-58